createdAt,value
2022-10-06T00:04:30.642Z,1.77
2022-10-06T00:09:32.923Z,1.97
2022-10-06T00:14:35.411Z,2.33
2022-10-06T00:19:56.340Z,2.13
2022-10-06T00:24:58.484Z,1.80
2022-10-06T00:30:00.661Z,2.67
2022-10-06T00:35:02.895Z,2.70
2022-10-06T00:40:24.515Z,2.53
2022-10-06T00:45:34.084Z,2.30
2022-10-06T00:50:36.618Z,4.05
2022-10-06T00:55:39.032Z,1.47
2022-10-06T01:00:42.637Z,2.10
2022-10-06T01:05:47.652Z,1.57
2022-10-06T01:10:49.774Z,1.63
2022-10-06T01:16:11.124Z,3.43
2022-10-06T01:21:23.147Z,3.17
2022-10-06T01:26:26.315Z,1.80
2022-10-06T01:31:40.976Z,1.90
2022-10-06T01:36:43.596Z,3.27
2022-10-06T01:42:04.933Z,1.60
2022-10-06T01:47:08.242Z,2.03
2022-10-06T01:52:10.849Z,2.67
2022-10-06T01:57:13.319Z,2.33
2022-10-06T02:02:24.720Z,1.97
2022-10-06T02:07:27.573Z,2.37
2022-10-06T02:12:32.001Z,1.77
2022-10-06T02:17:35.689Z,2.17
2022-10-06T02:22:39.623Z,2.40
2022-10-06T02:27:41.791Z,1.97
2022-10-06T02:32:46.305Z,1.67
2022-10-06T02:37:49.461Z,2.53
2022-10-06T02:43:12.865Z,2.63
2022-10-06T02:48:15.341Z,3.57
2022-10-06T02:53:17.610Z,3.33
2022-10-06T02:58:43.028Z,2.80
2022-10-06T03:03:48.599Z,5.60
2022-10-06T03:09:00.964Z,3.53
2022-10-06T03:14:05.236Z,2.87
2022-10-06T03:19:08.510Z,3.80
2022-10-06T03:24:11.662Z,2.80
2022-10-06T03:29:16.228Z,2.97
2022-10-06T03:34:41.614Z,3.20
2022-10-06T03:39:47.821Z,3.83
2022-10-06T03:44:50.410Z,3.37
2022-10-06T03:49:52.653Z,3.67
2022-10-06T03:54:54.877Z,5.17
2022-10-06T04:00:00.009Z,4.57
2022-10-06T04:05:02.395Z,4.57
2022-10-06T04:10:06.155Z,5.93
2022-10-06T04:15:27.361Z,3.70
2022-10-06T04:20:29.837Z,3.37
2022-10-06T04:25:33.094Z,6.07
2022-10-06T04:30:36.145Z,4.27
2022-10-06T04:35:38.888Z,5.37
2022-10-06T04:40:41.779Z,4.60
2022-10-06T04:45:44.042Z,5.03
2022-10-06T04:50:57.107Z,6.47
2022-10-06T04:56:19.106Z,4.87
2022-10-06T05:01:21.866Z,8.47
2022-10-06T05:06:26.740Z,9.00
2022-10-06T05:11:32.057Z,6.37
2022-10-06T05:16:37.768Z,5.80
2022-10-06T05:21:59.578Z,4.60
2022-10-06T05:27:08.691Z,8.70
2022-10-06T05:32:10.934Z,7.80
2022-10-06T05:37:31.855Z,6.23
2022-10-06T05:42:34.327Z,6.00
2022-10-06T05:47:36.936Z,6.47
2022-10-06T05:52:39.241Z,6.70
2022-10-06T05:57:42.160Z,13.13
2022-10-06T06:02:44.429Z,7.83
2022-10-06T06:07:48.296Z,7.50
2022-10-06T06:12:50.670Z,5.20
2022-10-06T06:18:13.107Z,9.07
2022-10-06T06:23:36.659Z,20.57
2022-10-06T06:28:42.841Z,21.10
2022-10-06T06:33:45.878Z,18.40
2022-10-06T06:38:52.056Z,21.80
2022-10-06T06:43:57.025Z,11.13
2022-10-06T06:49:12.230Z,10.20
2022-10-06T06:54:19.532Z,8.40
2022-10-06T06:59:45.819Z,7.27
2022-10-06T07:05:11.774Z,5.83
2022-10-06T07:10:14.658Z,4.93
2022-10-06T07:15:53.833Z,6.83
2022-10-06T07:21:14.491Z,6.37
2022-10-06T07:26:17.008Z,7.50
2022-10-06T07:31:20.033Z,5.27
2022-10-06T07:36:46.107Z,4.80
2022-10-06T07:42:08.060Z,5.60
2022-10-06T07:47:11.201Z,4.70
2022-10-06T07:52:31.335Z,4.07
2022-10-06T07:57:35.535Z,5.33
2022-10-06T08:02:56.374Z,5.93
2022-10-06T08:07:58.847Z,7.57
2022-10-06T08:13:01.946Z,5.77
2022-10-06T08:18:12.185Z,7.47
2022-10-06T08:23:32.643Z,5.07
2022-10-06T08:28:36.766Z,7.47
2022-10-06T08:33:40.152Z,5.83
2022-10-06T08:39:01.552Z,5.03
2022-10-06T08:44:16.066Z,5.33
2022-10-06T08:49:46.067Z,4.37
2022-10-06T08:54:59.756Z,5.57
2022-10-06T09:00:19.689Z,5.17
2022-10-06T09:05:28.708Z,6.37
2022-10-06T09:10:36.926Z,7.67
2022-10-06T09:15:45.054Z,7.63
2022-10-06T09:21:18.420Z,7.47
2022-10-06T09:26:24.012Z,7.07
2022-10-06T09:31:50.779Z,6.87
2022-10-06T09:37:13.002Z,9.10
2022-10-06T09:42:35.777Z,6.82
2022-10-06T09:48:13.021Z,7.43
2022-10-06T09:53:16.476Z,8.27
2022-10-06T09:58:30.658Z,8.03
2022-10-06T10:04:01.870Z,10.10
2022-10-06T10:09:21.812Z,7.57
2022-10-06T10:14:24.837Z,7.93
2022-10-06T10:19:33.801Z,8.73
2022-10-06T10:24:39.021Z,6.18
2022-10-06T10:29:45.821Z,9.33
2022-10-06T10:35:16.774Z,8.97
2022-10-06T10:40:35.634Z,10.07
2022-10-06T10:45:58.143Z,10.33
2022-10-06T10:51:09.480Z,9.63
2022-10-06T10:56:12.620Z,9.43
2022-10-06T11:01:35.616Z,9.20
2022-10-06T11:06:55.269Z,9.77
2022-10-06T11:12:11.192Z,8.13
2022-10-06T11:17:32.061Z,8.67
2022-10-06T11:23:08.452Z,7.33
2022-10-06T11:28:39.562Z,9.07
2022-10-06T11:34:09.515Z,8.60
2022-10-06T11:39:34.376Z,13.07
2022-10-06T11:44:43.098Z,10.87
2022-10-06T11:49:49.664Z,12.52
2022-10-06T11:55:16.257Z,7.97
2022-10-06T12:00:43.196Z,7.07
2022-10-06T12:06:00.725Z,8.43
2022-10-06T12:11:03.218Z,7.90
2022-10-06T12:22:22.688Z,7.17
2022-10-06T12:28:02.714Z,7.33
2022-10-06T12:33:05.964Z,7.60
2022-10-06T12:38:35.831Z,9.90
2022-10-06T12:43:54.904Z,6.72
2022-10-06T12:49:24.158Z,9.93
2022-10-06T12:54:40.187Z,10.50
2022-10-06T12:59:42.546Z,9.67
2022-10-06T13:04:54.343Z,6.83
2022-10-06T13:10:21.842Z,10.93
2022-10-06T13:15:43.467Z,8.07
2022-10-06T13:20:58.520Z,10.27
2022-10-06T13:26:27.897Z,8.27
2022-10-06T13:31:52.942Z,9.07
2022-10-06T13:36:56.050Z,9.80
2022-10-06T13:42:55.878Z,10.57
2022-10-06T13:48:27.506Z,8.17
2022-10-06T13:53:31.947Z,7.80
2022-10-06T13:58:34.148Z,8.20
2022-10-06T14:08:58.782Z,8.63
2022-10-06T14:14:03.415Z,9.97
2022-10-06T14:19:06.472Z,7.30
2022-10-06T14:24:19.118Z,9.20
2022-10-06T14:29:41.521Z,7.33
2022-10-06T14:34:43.913Z,7.07
2022-10-06T14:39:46.586Z,8.03
2022-10-06T14:44:48.756Z,9.13
2022-10-06T14:50:09.804Z,7.73
2022-10-06T14:55:31.418Z,8.07
2022-10-06T15:00:33.625Z,6.40
2022-10-06T15:05:55.690Z,8.90
2022-10-06T15:10:57.796Z,9.60
2022-10-06T15:16:00.185Z,9.37
2022-10-06T15:21:04.109Z,12.40
2022-10-06T15:26:25.338Z,11.97
2022-10-06T15:31:55.153Z,7.10
2022-10-06T15:36:58.228Z,10.53
2022-10-06T15:42:00.885Z,13.07
2022-10-06T15:47:05.906Z,10.53
2022-10-06T15:52:11.201Z,10.40
2022-10-06T15:57:20.282Z,10.20
2022-10-06T16:02:42.306Z,9.33
2022-10-06T16:07:44.609Z,10.90
2022-10-06T16:12:49.234Z,11.37
2022-10-06T16:17:51.400Z,12.40
2022-10-06T16:22:56.559Z,10.00
2022-10-06T16:27:59.010Z,11.27
2022-10-06T16:33:01.194Z,10.73
2022-10-06T16:38:04.389Z,10.00
2022-10-06T16:43:06.655Z,10.43
2022-10-06T16:48:08.848Z,12.20
2022-10-06T16:53:16.876Z,12.63
2022-10-06T16:58:19.497Z,14.37
2022-10-06T17:03:21.633Z,9.80
2022-10-06T17:08:24.050Z,13.20
2022-10-06T17:13:46.374Z,12.90
2022-10-06T17:18:53.375Z,10.57
2022-10-06T17:24:14.193Z,10.73
2022-10-06T17:29:21.628Z,10.93
2022-10-06T17:34:27.740Z,10.37
2022-10-06T17:39:32.898Z,11.57
2022-10-06T17:44:35.687Z,8.97
2022-10-06T17:49:37.914Z,9.43
2022-10-06T17:54:44.772Z,10.23
2022-10-06T17:59:48.251Z,11.00
2022-10-06T18:04:53.571Z,10.47
2022-10-06T18:10:14.136Z,17.33
2022-10-06T18:15:17.753Z,14.13
2022-10-06T18:20:30.190Z,12.93
2022-10-06T18:25:32.887Z,11.43
2022-10-06T18:30:40.673Z,12.27
2022-10-06T18:41:12.990Z,10.67
2022-10-06T18:52:31.761Z,10.37
2022-10-06T18:57:34.036Z,13.07
2022-10-06T19:02:36.251Z,13.13
2022-10-06T19:07:38.401Z,9.67
2022-10-06T19:12:40.581Z,11.73
2022-10-06T19:17:45.765Z,11.50
2022-10-06T19:22:48.101Z,14.03
2022-10-06T19:27:51.408Z,11.53
2022-10-06T19:33:12.408Z,10.73
2022-10-06T19:38:14.602Z,11.23
2022-10-06T19:43:17.405Z,12.57
2022-10-06T19:48:20.288Z,11.63
2022-10-06T19:53:22.761Z,11.90
2022-10-06T19:58:43.520Z,11.93
2022-10-06T20:03:45.856Z,10.50
2022-10-06T20:09:09.075Z,10.87
2022-10-06T20:14:21.076Z,12.63
2022-10-06T20:19:25.633Z,10.33
2022-10-06T20:24:28.056Z,12.40
2022-10-06T20:29:31.309Z,13.00
2022-10-06T20:34:52.183Z,11.63
2022-10-06T20:40:12.805Z,13.80
2022-10-06T20:45:33.504Z,11.00
2022-10-06T20:50:35.840Z,11.23
2022-10-06T20:55:41.103Z,10.73
2022-10-06T21:01:10.819Z,12.43
2022-10-06T21:06:16.809Z,12.97
2022-10-06T21:11:23.369Z,12.00
2022-10-06T21:16:34.144Z,12.13
2022-10-06T21:21:37.805Z,10.10
2022-10-06T21:26:42.815Z,12.03
2022-10-06T21:31:45.337Z,10.40
2022-10-06T21:37:07.235Z,11.30
2022-10-06T21:42:09.467Z,11.40
2022-10-06T21:47:11.893Z,11.80
2022-10-06T21:52:14.089Z,10.33
2022-10-06T21:57:16.240Z,8.77
2022-10-06T22:02:18.408Z,9.83
2022-10-06T22:07:20.621Z,10.07
2022-10-06T22:12:22.784Z,9.53
2022-10-06T22:17:26.821Z,8.77
2022-10-06T22:22:29.039Z,8.90
2022-10-06T22:27:32.475Z,11.27
2022-10-06T22:32:34.627Z,9.13
2022-10-06T22:37:55.649Z,9.67
2022-10-06T22:42:57.832Z,9.13
2022-10-06T22:48:00.003Z,9.83
2022-10-06T22:53:23.420Z,8.83
2022-10-06T22:58:26.035Z,10.07
2022-10-06T23:03:28.390Z,11.13
2022-10-06T23:08:35.095Z,8.37
2022-10-06T23:13:38.069Z,8.27
2022-10-06T23:18:41.330Z,8.77
2022-10-06T23:23:43.595Z,9.33
2022-10-06T23:28:47.231Z,8.73
2022-10-06T23:33:49.539Z,10.30
2022-10-06T23:38:51.932Z,8.30
2022-10-06T23:43:54.077Z,7.13
2022-10-06T23:48:56.261Z,7.63
2022-10-06T23:53:58.446Z,6.47
2022-10-06T23:59:00.657Z,9.70
